.
WxDataArchive / Data Records for 2010-06-02
2010-06-01 June 2010 2010-06-03

Data Records for Wednesday, 02 June 2010

Time	Temp	Chill	HIndex	Humid	Dewpt	 Wind 	HiWind	WindDir	Rain 	Barom 
-----	----	-----	------	-----	-----	------	------	-------	-----	----- 
00:00	67.4	67.4	67.4	85	62.7	0	0	---	0.00	29.831 
00:05	67.3	67.3	67.3	85	62.6	0	0	---	0.00	29.831 
00:10	67.1	67.1	67.1	85	62.4	0	0	---	0.00	29.831 
00:15	66.9	66.9	66.9	86	62.6	0	0	---	0.00	29.826 
00:20	66.8	66.8	66.8	86	62.5	0	0	---	0.00	29.826 
00:25	66.8	66.8	66.8	87	62.8	0	0	---	0.00	29.826 
00:30	66.6	66.6	66.6	87	62.6	0	0	---	0.00	29.822 
00:35	66.4	66.4	66.4	88	62.7	0	0	---	0.00	29.822 
00:40	66.4	66.4	66.4	88	62.7	0	0	---	0.00	29.822 
00:45	66.3	66.3	66.3	88	62.6	0	0	---	0.00	29.812 
00:50	66.3	66.3	66.3	88	62.6	0	0	---	0.00	29.812 
00:55	66.1	66.1	66.1	88	62.4	0	0	---	0.00	29.812 
01:00	66.1	66.1	66.1	89	62.8	0	0	---	0.00	29.810 
01:05	66.1	66.1	66.1	89	62.8	0	0	---	0.00	29.810 
01:10	66.1	66.1	66.1	89	62.8	0	0	---	0.00	29.810 
01:15	66.0	66.0	66.0	89	62.7	0	0	---	0.00	29.809 
01:20	66.0	66.0	66.0	89	62.7	0	0	---	0.00	29.809 
01:25	66.0	66.0	66.0	89	62.7	0	0	---	0.00	29.809 
01:30	65.8	65.8	65.8	90	62.8	0	0	---	0.00	29.808 
01:35	65.8	65.8	65.8	90	62.8	0	0	---	0.00	29.808 
01:40	65.8	65.8	65.8	90	62.8	0	0	---	0.00	29.808 
01:45	65.8	65.8	65.8	90	62.8	0	0	---	0.00	29.805 
01:50	65.8	65.8	65.8	90	62.8	0	0	---	0.00	29.805 
01:55	65.8	65.8	65.8	90	62.8	0	0	---	0.00	29.805 
02:00	65.8	65.8	65.8	89	62.5	0	0	---	0.00	29.800 
02:05	65.8	65.8	65.8	89	62.5	0	0	---	0.00	29.800 
02:10	65.8	65.8	65.8	89	62.5	0	0	---	0.00	29.800 
02:15	65.8	65.8	65.8	89	62.5	0	0	---	0.00	29.790 
02:20	65.8	65.8	65.8	89	62.5	0	0	---	0.00	29.790 
02:25	65.8	65.8	65.8	89	62.5	0	0	---	0.00	29.790 
02:30	65.8	65.8	65.8	89	62.5	0	0	---	0.00	29.779 
02:35	65.8	65.8	65.8	89	62.5	0	0	---	0.00	29.779 
02:40	65.8	65.8	65.8	89	62.5	0	0	---	0.00	29.779 
02:45	65.6	65.6	65.6	89	62.3	0	0	---	0.00	29.776 
02:50	65.6	65.6	65.6	89	62.3	0	0	---	0.00	29.776 
02:55	65.6	65.6	65.6	89	62.3	0	0	---	0.00	29.776 
03:00	65.6	65.6	65.6	89	62.3	0	0	---	0.00	29.761 
03:05	65.6	65.6	65.6	89	62.3	0	0	---	0.00	29.761 
03:10	65.6	65.6	65.6	89	62.3	0	0	---	0.00	29.761 
03:15	65.6	65.6	65.6	89	62.3	0	0	---	0.00	29.765 
03:20	65.6	65.6	65.6	89	62.3	0	0	---	0.00	29.765 
03:25	65.5	65.5	65.5	89	62.2	0	0	---	0.00	29.765 
03:30	65.5	65.5	65.5	89	62.2	0	0	---	0.00	29.775 
03:35	65.5	65.5	65.5	89	62.2	0	0	---	0.00	29.775 
03:40	65.3	65.3	65.3	89	62.0	0	0	---	0.00	29.775 
03:45	65.3	65.3	65.3	90	62.3	0	0	---	0.00	29.766 
03:50	65.2	65.2	65.2	90	62.2	0	0	---	0.00	29.766 
03:55	65.2	65.2	65.2	90	62.2	0	0	---	0.00	29.766 
04:00	65.0	65.0	65.0	90	62.0	0	0	---	0.00	29.763 
04:05	65.0	65.0	65.0	90	62.0	0	0	---	0.00	29.763 
04:10	64.8	64.8	64.8	90	61.8	0	0	---	0.00	29.763 
04:15	64.8	64.8	64.8	90	61.8	0	0	---	0.00	29.760 
04:20	64.8	64.8	64.8	91	62.1	0	0	---	0.00	29.760 
04:25	64.8	64.8	64.8	91	62.1	0	0	---	0.00	29.760 
04:30	64.8	64.8	64.8	91	62.1	0	0	---	0.00	29.766 
04:35	64.8	64.8	64.8	92	62.4	0	0	---	0.00	29.766 
04:40	64.8	64.8	64.8	92	62.4	0	0	---	0.00	29.766 
04:45	65.0	65.0	65.0	92	62.6	0	0	---	0.00	29.760 
04:50	65.2	65.2	65.2	92	62.8	0	0	---	0.00	29.760 
04:55	65.3	65.3	65.3	92	62.9	0	0	---	0.00	29.760 
05:00	65.3	65.3	65.3	92	62.9	0	0	---	0.00	29.754 
05:05	65.6	65.6	65.6	92	63.2	0	0	---	0.00	29.754 
05:10	65.6	65.6	65.6	92	63.2	0	0	---	0.00	29.754 
05:15	65.8	65.8	65.8	92	63.4	0	0	---	0.00	29.748 
05:20	66.0	66.0	66.0	92	63.6	0	0	---	0.00	29.748 
05:25	66.1	66.1	66.1	92	63.7	0	0	---	0.00	29.748 
05:30	66.3	66.3	66.3	92	63.9	0	0	---	0.00	29.748 
05:35	66.4	66.4	66.4	92	64.0	0	0	---	0.00	29.748 
05:40	66.6	66.6	66.6	91	63.9	0	0	---	0.00	29.748 
05:45	66.8	66.8	66.8	91	64.1	0	0	---	0.00	29.747 
05:50	66.9	66.9	66.9	91	64.2	0	0	---	0.00	29.747 
05:55	67.1	67.1	67.1	91	64.4	0	0	---	0.00	29.747 
06:00	67.4	67.4	67.4	90	64.4	0	0	---	0.00	29.744 
06:05	67.6	67.6	67.6	90	64.6	0	0	---	0.00	29.744 
06:10	67.8	67.8	67.8	89	64.4	0	1	0	0.00	29.744 
06:15	68.1	68.1	68.1	89	64.7	0	2	0	0.00	29.740 
06:20	68.4	68.4	68.4	88	64.7	0	3	22	0.00	29.740 
06:25	68.8	68.8	68.8	88	65.1	0	2	22	0.00	29.740 
06:30	68.9	68.9	68.9	88	65.2	0	2	22	0.00	29.735 
06:35	69.3	69.3	69.3	88	65.6	0	3	45	0.00	29.735 
06:40	69.4	69.4	69.4	87	65.4	0	2	45	0.00	29.735 
06:45	69.6	69.6	69.6	87	65.6	0	4	68	0.00	29.732 
06:50	69.8	69.8	69.8	87	65.7	0	2	68	0.00	29.732 
06:55	69.9	69.9	69.9	87	65.8	0	1	68	0.00	29.732 
07:00	69.9	69.9	69.9	87	65.8	0	2	45	0.00	29.726 
07:05	70.1	70.1	70.1	87	66.0	0	3	68	0.00	29.726 
07:10	70.1	70.1	70.1	87	66.0	0	2	68	0.00	29.726 
07:15	70.3	70.3	70.3	86	65.9	0	3	68	0.00	29.722 
07:20	70.3	70.3	70.3	86	65.9	0	1	68	0.00	29.722 
07:25	70.4	70.4	70.4	86	66.0	1	4	68	0.00	29.722 
07:30	70.4	70.4	70.4	86	66.0	1	3	90	0.00	29.726 
07:35	70.6	70.6	70.6	86	66.2	0	2	292	0.00	29.726 
07:40	70.6	70.6	70.6	86	66.2	1	3	90	0.00	29.726 
07:45	70.8	70.8	70.8	86	66.4	0	2	292	0.00	29.713 
07:50	70.8	70.8	70.8	86	66.4	1	5	45	0.00	29.713 
07:55	71.1	71.1	71.1	86	66.7	3	9	270	0.00	29.713 
08:00	70.1	70.1	70.1	84	65.0	4	7	270	0.03	29.752 
08:05	68.4	68.4	68.4	86	64.0	2	6	270	0.02	29.752 
08:10	67.9	67.9	67.9	88	64.2	1	4	248	0.01	29.752 
08:15	67.8	67.8	67.8	90	64.8	1	3	248	0.01	29.733 
08:20	67.4	67.4	67.4	91	64.7	1	3	315	0.00	29.733 
08:25	67.1	67.1	67.1	91	64.4	1	3	315	0.01	29.733 
08:30	66.8	66.8	66.8	92	64.4	0	2	248	0.00	29.734 
08:35	66.6	66.6	66.6	92	64.2	0	2	248	0.00	29.734 
08:40	66.4	66.4	66.4	92	64.0	0	1	248	0.00	29.734 
08:45	66.3	66.3	66.3	92	63.9	0	2	248	0.00	29.749 
08:50	66.4	66.4	66.4	93	64.3	0	3	248	0.00	29.749 
08:55	66.4	66.4	66.4	93	64.3	0	1	248	0.00	29.749 
09:00	66.4	66.4	66.4	93	64.3	0	1	248	0.00	29.751 
09:05	66.4	66.4	66.4	93	64.3	0	1	248	0.00	29.751 
09:10	66.6	66.6	66.6	93	64.5	0	2	225	0.00	29.751 
09:15	66.8	66.8	66.8	93	64.7	0	3	225	0.00	29.738 
09:20	66.6	66.6	66.6	93	64.5	0	2	135	0.00	29.738 
09:25	66.6	66.6	66.6	92	64.2	0	3	135	0.00	29.738 
09:30	66.6	66.6	66.6	92	64.2	1	3	112	0.00	29.729 
09:35	66.6	66.6	66.6	92	64.2	1	3	90	0.00	29.729 
09:40	66.6	66.6	66.6	92	64.2	0	2	68	0.00	29.729 
09:45	66.6	66.6	66.6	92	64.2	0	3	68	0.00	29.731 
09:50	66.8	66.8	66.8	92	64.4	0	1	68	0.00	29.731 
09:55	66.8	66.8	66.8	92	64.4	0	2	270	0.00	29.731 
10:00	66.8	66.8	66.8	92	64.4	0	3	0	0.00	29.725 
10:05	66.8	66.8	66.8	92	64.4	0	3	315	0.00	29.725 
10:10	66.9	66.9	66.9	92	64.5	1	3	45	0.00	29.725 
10:15	67.3	67.3	67.3	92	64.9	1	3	45	0.00	29.716 
10:20	67.9	67.9	67.9	92	65.5	0	2	45	0.00	29.716 
10:25	68.4	68.4	68.4	91	65.7	1	4	45	0.00	29.716 
10:30	68.6	68.6	68.6	90	65.5	1	4	90	0.00	29.712 
10:35	68.6	68.6	68.6	88	64.9	1	8	45	0.00	29.712 
10:40	68.9	68.9	68.9	88	65.2	1	4	270	0.00	29.712 
10:45	69.4	69.4	69.4	87	65.4	1	5	270	0.00	29.701 
10:50	70.1	70.1	70.1	86	65.7	1	3	68	0.00	29.701 
10:55	70.4	70.4	70.4	84	65.3	1	4	225	0.00	29.701 
11:00	70.6	70.6	70.6	81	64.5	2	5	270	0.00	29.694 
11:05	70.8	70.8	70.8	81	64.7	2	5	248	0.00	29.694 
11:10	71.6	71.6	71.6	79	64.7	2	6	315	0.00	29.694 
11:15	72.0	72.0	72.0	78	64.8	1	4	248	0.00	29.686 
11:20	72.1	72.1	72.1	78	64.8	1	4	315	0.00	29.686 
11:25	72.8	72.8	72.8	80	66.3	1	3	270	0.00	29.686 
11:30	73.3	73.3	73.3	73	64.1	3	6	270	0.00	29.698 
11:35	73.5	73.5	73.5	74	64.7	2	7	270	0.00	29.698 
11:40	73.7	73.7	73.7	72	64.1	3	7	270	0.00	29.698 
11:45	74.2	74.2	74.2	73	65.0	2	6	270	0.00	29.701 
11:50	74.2	74.2	74.2	72	64.6	3	5	270	0.00	29.701 
11:55	74.7	74.7	74.7	72	65.1	3	6	270	0.00	29.701 
12:00	75.4	75.4	77.1	70	64.9	3	9	270	0.00	29.699 
12:05	75.8	75.8	77.4	71	65.7	2	5	270	0.00	29.699 
12:10	76.1	76.1	77.8	69	65.2	2	4	292	0.00	29.699 
12:15	76.5	76.5	78.2	69	65.6	3	6	270	0.00	29.696 
12:20	76.8	76.8	78.6	68	65.4	2	5	270	0.00	29.696 
12:25	77.2	77.2	79.0	69	66.2	2	4	270	0.00	29.696 
12:30	76.8	76.8	78.6	67	65.0	3	6	270	0.00	29.700 
12:35	76.7	76.7	78.5	67	64.9	3	6	270	0.00	29.700 
12:40	76.5	76.5	78.3	66	64.3	3	6	270	0.00	29.700 
12:45	76.3	76.3	78.1	67	64.5	3	6	270	0.00	29.715 
12:50	76.1	76.1	77.8	68	64.8	3	8	292	0.00	29.715 
12:55	76.5	76.5	78.3	68	65.1	3	6	270	0.00	29.715 
13:00	76.8	76.8	78.6	65	64.1	3	10	270	0.00	29.717 
13:05	76.8	76.8	78.6	63	63.2	4	10	248	0.00	29.717 
13:10	77.2	77.2	79.0	64	64.1	4	7	270	0.00	29.717 
13:15	77.4	77.4	79.2	63	63.8	3	7	270	0.00	29.717 
13:20	77.4	77.4	79.2	63	63.8	3	6	270	0.00	29.717 
13:25	77.7	77.7	79.5	64	64.5	3	6	270	0.00	29.717 
13:30	77.7	77.7	79.4	62	63.6	4	7	270	0.00	29.716 
13:35	77.7	77.7	79.4	61	63.2	4	7	248	0.00	29.716 
13:40	77.6	77.6	79.4	62	63.5	3	6	270	0.00	29.716 
13:45	77.2	77.2	79.0	63	63.6	3	6	270	0.00	29.728 
13:50	76.8	76.8	78.6	64	63.7	3	6	270	0.00	29.728 
13:55	76.8	76.8	78.6	65	64.1	3	7	270	0.00	29.728 
14:00	76.8	76.8	78.6	62	62.8	4	10	270	0.00	29.732 
14:05	76.7	76.7	78.5	62	62.7	3	7	270	0.00	29.732 
14:10	76.3	76.3	78.2	62	62.3	3	7	270	0.00	29.732 
14:15	76.1	76.1	78.0	63	62.6	3	7	270	0.00	29.722 
14:20	76.1	76.1	78.0	64	63.0	3	5	270	0.00	29.722 
14:25	76.5	76.5	78.4	61	62.0	3	6	270	0.00	29.722 
14:30	76.8	76.8	78.6	62	62.8	3	6	270	0.00	29.727 
14:35	77.2	77.2	79.0	62	63.2	3	4	315	0.00	29.727 
14:40	77.4	77.4	79.2	62	63.3	3	6	292	0.00	29.727 
14:45	77.4	77.4	79.1	60	62.4	3	5	270	0.00	29.725 
14:50	77.0	77.0	78.8	62	63.0	3	6	270	0.00	29.725 
14:55	77.0	77.0	78.8	63	63.4	2	5	270	0.00	29.725 
15:00	77.4	77.4	79.2	62	63.3	2	5	270	0.00	29.727 
15:05	77.4	77.4	79.1	61	62.9	3	5	270	0.00	29.727 
15:10	77.6	77.6	79.3	61	63.1	3	7	270	0.00	29.727 
15:15	77.4	77.4	79.1	61	62.9	2	5	248	0.00	29.724 
15:20	77.6	77.6	79.3	61	63.1	2	5	248	0.00	29.724 
15:25	77.4	77.4	79.2	62	63.3	2	5	270	0.00	29.724 
15:30	77.4	77.4	79.2	62	63.3	2	5	292	0.00	29.717 
15:35	77.4	77.4	79.2	63	63.8	1	4	292	0.00	29.717 
15:40	77.7	77.7	79.4	61	63.2	2	4	292	0.00	29.717 
15:45	78.1	78.1	79.9	62	64.0	1	4	248	0.00	29.715 
15:50	78.1	78.1	79.8	61	63.5	1	4	270	0.00	29.715 
15:55	77.9	77.9	79.6	61	63.3	1	3	270	0.00	29.715 
16:00	77.7	77.7	79.4	62	63.6	1	3	270	0.00	29.717 
16:05	77.2	77.2	79.0	61	62.7	1	4	270	0.00	29.717 
16:10	76.8	76.8	78.6	62	62.8	2	4	292	0.00	29.717 
16:15	76.3	76.3	78.2	62	62.3	2	4	292	0.00	29.722 
16:20	76.1	76.1	78.0	64	63.0	1	4	270	0.00	29.722 
16:25	76.1	76.1	78.0	64	63.0	1	4	248	0.00	29.722 
16:30	76.0	76.0	77.9	65	63.4	1	3	315	0.00	29.717 
16:35	76.0	76.0	77.9	65	63.4	1	3	315	0.00	29.717 
16:40	76.3	76.3	78.2	64	63.2	1	3	315	0.00	29.717 
16:45	76.5	76.5	78.3	64	63.4	2	4	315	0.00	29.713 
16:50	76.7	76.7	78.5	64	63.6	1	3	292	0.00	29.713 
16:55	76.7	76.7	78.5	65	64.0	1	3	315	0.00	29.713 
17:00	76.5	76.5	78.3	64	63.4	1	3	315	0.00	29.716 
17:05	76.3	76.3	78.2	64	63.2	2	4	292	0.00	29.716 
17:10	76.1	76.1	78.0	65	63.5	1	2	270	0.00	29.716 
17:15	76.3	76.3	78.1	65	63.6	1	3	315	0.00	29.714 
17:20	76.7	76.7	78.5	66	64.5	0	2	315	0.00	29.714 
17:25	77.2	77.2	79.0	64	64.1	1	4	315	0.00	29.714 
17:30	77.6	77.6	79.4	64	64.4	1	3	270	0.00	29.697 
17:35	77.6	77.6	79.4	64	64.4	0	3	270	0.00	29.697 
17:40	77.7	77.7	79.5	65	65.0	1	2	270	0.00	29.697 
17:45	77.6	77.6	79.4	64	64.4	0	2	270	0.00	29.698 
17:50	77.2	77.2	79.0	65	64.5	0	2	270	0.00	29.698 
17:55	76.8	76.8	78.6	66	64.6	0	3	292	0.00	29.698 
18:00	77.0	77.0	78.8	66	64.8	1	2	292	0.00	29.692 
18:05	77.4	77.4	79.2	65	64.7	1	3	338	0.00	29.692 
18:10	77.4	77.4	79.2	65	64.7	1	2	338	0.00	29.692 
18:15	77.2	77.2	79.0	65	64.5	0	2	338	0.00	29.683 
18:20	77.2	77.2	79.0	65	64.5	1	3	338	0.00	29.683 
18:25	76.8	76.8	78.6	65	64.1	1	3	338	0.00	29.683 
18:30	76.7	76.7	78.5	64	63.6	0	2	315	0.00	29.681 
18:35	76.8	76.8	78.6	65	64.1	0	1	315	0.00	29.681 
18:40	77.0	77.0	78.8	66	64.8	0	3	315	0.00	29.681 
18:45	76.8	76.8	78.6	66	64.6	0	2	315	0.00	29.674 
18:50	76.5	76.5	78.3	68	65.1	0	2	315	0.00	29.674 
18:55	76.1	76.1	77.8	69	65.2	0	1	315	0.00	29.674 
19:00	76.0	76.0	77.7	70	65.5	0	1	315	0.00	29.679 
19:05	75.3	75.3	77.0	69	64.4	0	1	315	0.00	29.679 
19:10	74.9	74.9	74.9	70	64.4	0	0	---	0.00	29.679 
19:15	74.6	74.6	74.6	70	64.2	0	2	315	0.00	29.682 
19:20	74.2	74.2	74.2	70	63.8	0	1	315	0.00	29.682 
19:25	73.7	73.7	73.7	75	65.3	0	1	315	0.03	29.682 
19:30	72.0	72.0	72.0	80	65.5	0	1	315	0.10	29.685 
19:35	69.9	69.9	69.9	84	64.8	1	3	338	0.06	29.685 
19:40	69.1	69.1	69.1	87	65.1	0	3	338	0.02	29.685 
19:45	68.9	68.9	68.9	89	65.5	0	1	338	0.03	29.688 
19:50	68.8	68.8	68.8	91	66.1	0	0	---	0.00	29.688 
19:55	68.6	68.6	68.6	91	65.9	0	0	---	0.01	29.688 
20:00	68.6	68.6	68.6	92	66.2	0	1	338	0.00	29.689 
20:05	68.4	68.4	68.4	92	66.0	0	0	---	0.00	29.689 
20:10	68.4	68.4	68.4	92	66.0	0	0	---	0.00	29.689 
20:15	68.4	68.4	68.4	93	66.3	0	0	---	0.00	29.705 
20:20	68.4	68.4	68.4	93	66.3	0	0	---	0.00	29.705 
20:25	68.3	68.3	68.3	93	66.2	0	0	---	0.00	29.705 
20:30	68.3	68.3	68.3	93	66.2	0	0	---	0.00	29.709 
20:35	68.3	68.3	68.3	93	66.2	0	0	---	0.00	29.709 
20:40	68.3	68.3	68.3	94	66.5	0	0	---	0.00	29.709 
20:45	68.3	68.3	68.3	94	66.5	0	0	---	0.00	29.721 
20:50	68.3	68.3	68.3	94	66.5	0	0	---	0.00	29.721 
20:55	68.3	68.3	68.3	94	66.5	0	0	---	0.00	29.721 
21:00	68.3	68.3	68.3	94	66.5	0	0	---	0.00	29.725 
21:05	68.3	68.3	68.3	94	66.5	0	0	---	0.00	29.725 
21:10	68.3	68.3	68.3	94	66.5	0	0	---	0.00	29.725 
21:15	68.3	68.3	68.3	94	66.5	0	0	---	0.00	29.723 
21:20	68.1	68.1	68.1	94	66.3	0	0	---	0.00	29.723 
21:25	68.1	68.1	68.1	95	66.6	0	0	---	0.00	29.723 
21:30	68.1	68.1	68.1	95	66.6	0	0	---	0.00	29.726 
21:35	68.1	68.1	68.1	95	66.6	0	0	---	0.00	29.726 
21:40	67.9	67.9	67.9	95	66.4	0	0	---	0.00	29.726 
21:45	67.9	67.9	67.9	95	66.4	0	0	---	0.00	29.725 
21:50	67.8	67.8	67.8	95	66.3	0	0	---	0.00	29.725 
21:55	67.8	67.8	67.8	95	66.3	0	0	---	0.00	29.725 
22:00	67.8	67.8	67.8	95	66.3	0	0	---	0.00	29.727 
22:05	67.6	67.6	67.6	95	66.1	0	0	---	0.00	29.727 
22:10	67.6	67.6	67.6	95	66.1	0	0	---	0.00	29.727 
22:15	67.4	67.4	67.4	95	65.9	0	0	---	0.00	29.725 
22:20	67.4	67.4	67.4	95	65.9	0	0	---	0.00	29.725 
22:25	67.3	67.3	67.3	95	65.8	0	0	---	0.00	29.725 
22:30	67.1	67.1	67.1	95	65.6	0	0	---	0.00	29.722 
22:35	66.9	66.9	66.9	95	65.4	0	0	---	0.00	29.722 
22:40	66.9	66.9	66.9	95	65.4	0	0	---	0.00	29.722 
22:45	66.8	66.8	66.8	95	65.3	0	0	---	0.00	29.720 
22:50	66.8	66.8	66.8	95	65.3	0	0	---	0.00	29.720 
22:55	66.8	66.8	66.8	95	65.3	0	0	---	0.00	29.720 
23:00	66.8	66.8	66.8	95	65.3	0	0	---	0.00	29.722 
23:05	66.8	66.8	66.8	95	65.3	0	0	---	0.00	29.722 
23:10	66.8	66.8	66.8	95	65.3	0	0	---	0.00	29.722 
23:15	66.8	66.8	66.8	95	65.3	0	0	---	0.00	29.719 
23:20	66.6	66.6	66.6	95	65.1	0	0	---	0.00	29.719 
23:25	66.6	66.6	66.6	96	65.4	0	0	---	0.00	29.719 
23:30	66.4	66.4	66.4	95	64.9	0	0	---	0.00	29.721 
23:35	66.3	66.3	66.3	96	65.1	0	0	---	0.00	29.721 
23:40	66.3	66.3	66.3	96	65.1	0	0	---	0.00	29.721 
23:45	66.3	66.3	66.3	96	65.1	0	0	---	0.00	29.717 
23:50	66.1	66.1	66.1	96	64.9	0	0	---	0.00	29.717 
23:55	66.0	66.0	66.0	96	64.8	0	0	---	0.00	29.717 

CoCoRaHS
IN-AL-39
A2 Web Hosting
Creative Commons License
GoDaddy
search engine by freefind advanced

loaded 2018-11-12 15:28:27 • last modified 2010-11-18 10:43:29
Privacy PolicyDisclaimer
• wx.awcolley.com is powered by PmWiki v.2002016 •
• all content (unless otherwise noted) © 2018 A W Colley